Time;durP1;ratioP1;P1;durP2;ratioP2;P2;SDS_P1;SDS_P2;PMS_P1;PMS_P2;Temp;Humidity;BMP_temperature;BMP_pressure;BME280_temperature;BME280_humidity;BME280_pressure;Samples;Min_cycle;Max_cycle;Signal;HPM_P1;HPM_P2
2022/01/17 00:02:34;;;;;;;;;27.00;22.75;;;;;4.81;65.99;102005.59;146603;642;47021;-81
2022/01/17 00:05:26;;;;;;;;;25.00;23.25;;;;;4.75;65.76;102005.91;146600;566;46016;-85
2022/01/17 00:08:18;;;;;;;;;32.50;28.00;;;;;4.79;66.01;102007.09;146605;583;46020;-81
2022/01/17 00:11:11;;;;;;;;;22.75;22.25;;;;;4.81;65.76;102008.16;146601;564;46914;-81
2022/01/17 00:14:10;;;;;;;;;19.25;19.00;;;;;4.80;67.55;102003.81;146605;616;46012;-78
2022/01/17 00:20:25;;;;;;;;;21.75;21.50;;;;;4.75;65.55;101999.87;146604;575;46022;-87
2022/01/17 00:23:19;;;;;;;;;21.25;20.00;;;;;4.74;67.15;102004.13;146600;625;46016;-78
2022/01/17 00:26:11;;;;;;;;;22.25;19.25;;;;;4.71;66.28;102005.50;146603;600;46008;-78
2022/01/17 00:29:03;;;;;;;;;23.00;18.00;;;;;4.74;65.97;102000.66;146600;618;46012;-74
2022/01/17 00:31:56;;;;;;;;;18.25;15.75;;;;;4.81;66.67;102003.03;146609;573;45021;-78
2022/01/17 00:34:48;;;;;;;;;20.75;20.25;;;;;4.86;65.76;101999.25;146602;594;46010;-76
2022/01/17 00:37:40;;;;;;;;;31.00;28.25;;;;;4.91;65.81;102002.22;146603;658;46020;-80
2022/01/17 00:40:33;;;;;;;;;36.25;32.25;;;;;4.93;65.57;102001.62;146600;624;46010;-80
2022/01/17 00:43:26;;;;;;;;;36.75;32.25;;;;;4.97;65.19;102005.38;146603;697;46020;-81
2022/01/17 00:46:18;;;;;;;;;25.25;23.00;;;;;4.97;65.75;102001.12;146602;612;46016;-80
2022/01/17 00:49:10;;;;;;;;;37.75;32.00;;;;;4.92;65.28;101996.31;146604;591;46020;-87
2022/01/17 00:52:04;;;;;;;;;45.50;39.00;;;;;4.85;66.00;102000.88;146603;603;45914;-84
2022/01/17 00:54:57;;;;;;;;;52.25;41.00;;;;;4.78;64.56;101998.50;146607;572;46008;-83
2022/01/17 00:57:49;;;;;;;;;59.25;48.25;;;;;4.69;65.84;101989.03;146604;589;46010;-81
2022/01/17 01:00:44;;;;;;;;;69.75;52.00;;;;;4.55;66.36;101977.44;146605;600;46021;-82
2022/01/17 01:03:37;;;;;;;;;75.75;58.50;;;;;4.48;66.31;101986.22;146598;592;46010;-88
2022/01/17 01:06:30;;;;;;;;;71.50;57.00;;;;;4.39;66.35;101973.41;146603;670;46008;-81
2022/01/17 01:09:24;;;;;;;;;71.25;53.25;;;;;4.34;66.54;101976.28;146594;628;47913;-82
2022/01/17 01:12:16;;;;;;;;;65.75;52.00;;;;;4.28;66.50;101974.03;146600;565;46008;-78
2022/01/17 01:15:17;;;;;;;;;228.50;191.00;;;;;4.25;66.97;101967.72;146600;589;47914;-83
2022/01/17 01:18:36;;;;;;;;;82.00;65.67;;;;;4.23;66.11;101966.66;146605;579;46020;-82
2022/01/17 01:21:59;;;;;;;;;73.00;55.50;;;;;4.22;66.24;101960.59;146601;627;46016;-80
2022/01/17 01:27:56;;;;;;;;;60.00;47.00;;;;;4.18;66.43;101953.38;146597;589;46016;-82
2022/01/17 01:30:51;;;;;;;;;48.50;37.75;;;;;4.15;66.45;101959.13;146601;628;46008;-81
2022/01/17 01:33:51;;;;;;;;;42.50;35.50;;;;;4.14;66.97;101956.38;146596;612;46024;-82
2022/01/17 01:36:47;;;;;;;;;42.00;35.75;;;;;4.08;66.97;101955.78;146598;606;46034;-83
2022/01/17 01:39:39;;;;;;;;;38.75;33.00;;;;;4.02;66.83;101950.06;146597;593;46913;-76
2022/01/17 01:42:33;;;;;;;;;44.50;36.00;;;;;3.94;66.98;101939.97;146600;586;46008;-84
2022/01/17 01:45:27;;;;;;;;;44.25;36.75;;;;;3.94;67.17;101933.94;146595;564;47010;-84
2022/01/17 01:48:19;;;;;;;;;38.25;34.50;;;;;3.94;67.23;101937.41;146599;626;46008;-90
2022/01/17 01:51:12;;;;;;;;;33.75;29.25;;;;;3.97;67.56;101941.03;146597;581;46030;-88
2022/01/17 01:54:04;;;;;;;;;32.25;29.50;;;;;3.98;67.43;101925.78;146600;577;46020;-88
2022/01/17 01:56:56;;;;;;;;;36.75;30.50;;;;;3.99;67.40;101935.31;146594;680;47913;-89
2022/01/17 01:59:48;;;;;;;;;24.50;22.25;;;;;3.96;67.59;101927.31;146598;606;46021;-85
2022/01/17 02:02:41;;;;;;;;;29.75;26.00;;;;;3.93;67.54;101925.34;146599;597;46025;-81
2022/01/17 02:05:33;;;;;;;;;32.50;28.75;;;;;3.93;67.05;101919.31;146602;593;46020;-81
2022/01/17 02:08:25;;;;;;;;;42.50;35.50;;;;;3.93;68.01;101915.09;146598;570;46017;-82
2022/01/17 02:11:17;;;;;;;;;43.25;36.50;;;;;3.92;67.53;101907.22;146600;582;46020;-81
2022/01/17 02:14:10;;;;;;;;;27.25;23.25;;;;;3.90;68.40;101913.88;146602;583;45039;-81
2022/01/17 02:17:07;;;;;;;;;26.75;26.00;;;;;3.82;68.05;101900.28;146603;683;46020;-81
2022/01/17 02:20:09;;;;;;;;;31.25;26.50;;;;;3.74;68.00;101897.75;146599;720;46010;-82
2022/01/17 02:23:04;;;;;;;;;30.25;25.25;;;;;3.69;68.60;101910.12;146600;570;46008;-82
2022/01/17 02:25:56;;;;;;;;;30.75;29.00;;;;;3.64;68.79;101911.34;146599;587;46010;-81
2022/01/17 02:28:53;;;;;;;;;34.50;27.50;;;;;3.58;68.67;101905.59;146603;620;46020;-77
2022/01/17 02:31:47;;;;;;;;;33.25;28.25;;;;;2.41;69.29;101712.22;146604;695;46008;-87
2022/01/17 02:34:44;;;;;;;;;32.00;31.50;;;;;3.47;69.41;101900.34;146601;599;46020;-79
2022/01/17 02:37:36;;;;;;;;;42.75;37.00;;;;;3.46;69.46;101902.78;146600;651;46012;-80
2022/01/17 02:40:30;;;;;;;;;44.75;35.75;;;;;3.46;69.08;101907.91;146602;628;46020;-79
2022/01/17 02:43:24;;;;;;;;;43.00;38.50;;;;;3.45;68.93;101906.06;146603;677;45017;-85
2022/01/17 02:46:25;;;;;;;;;49.25;39.25;;;;;3.50;68.13;101906.53;146601;581;46020;-86
2022/01/17 02:49:17;;;;;;;;;47.25;39.50;;;;;3.52;68.58;101902.44;146599;681;46016;-83
2022/01/17 02:52:10;;;;;;;;;49.50;38.00;;;;;3.49;68.94;101892.81;146600;626;46021;-76
2022/01/17 02:55:02;;;;;;;;;43.50;35.25;;;;;3.42;69.37;101896.41;146602;563;46010;-88
2022/01/17 02:57:54;;;;;;;;;50.00;39.25;;;;;3.38;68.57;101881.50;146605;616;46020;-80
2022/01/17 03:00:47;;;;;;;;;41.25;36.00;;;;;3.36;68.65;101872.72;146600;717;46016;-80
2022/01/17 03:03:40;;;;;;;;;56.75;45.50;;;;;3.34;68.47;101875.91;146604;698;46020;-75
2022/01/17 03:06:32;;;;;;;;;52.50;41.50;;;;;3.33;67.77;101868.97;146604;578;46017;-77
2022/01/17 03:09:27;;;;;;;;;36.25;31.25;;;;;3.32;67.76;101867.16;146602;660;46020;-74
2022/01/17 03:12:19;;;;;;;;;47.25;37.50;;;;;3.33;67.66;101864.72;146602;582;46017;-76
2022/01/17 03:15:13;;;;;;;;;62.50;49.25;;;;;3.34;67.10;101858.88;146606;569;46020;-79
2022/01/17 03:18:06;;;;;;;;;53.50;40.50;;;;;3.33;67.48;101854.47;146601;578;46010;-73
2022/01/17 03:20:59;;;;;;;;;27.50;26.50;;;;;3.28;68.12;101855.72;146600;642;46021;-73
2022/01/17 03:23:53;;;;;;;;;28.50;23.25;;;;;3.19;67.88;101852.25;146600;621;46016;-82
2022/01/17 03:26:45;;;;;;;;;35.75;29.50;;;;;3.11;67.86;101841.22;146603;613;46020;-75
2022/01/17 03:29:38;;;;;;;;;36.75;34.25;;;;;3.09;68.56;101853.00;146602;626;46010;-73
2022/01/17 03:32:30;;;;;;;;;27.50;24.00;;;;;3.07;68.20;101858.72;146603;637;46008;-73
2022/01/17 03:35:23;;;;;;;;;64.50;51.00;;;;;3.07;67.85;101853.59;146606;637;46017;-75
2022/01/17 03:38:17;;;;;;;;;69.50;55.00;;;;;3.09;68.40;101852.09;146605;647;46020;-80
2022/01/17 03:41:13;;;;;;;;;22.25;21.75;;;;;1.90;67.91;101634.66;146601;782;46016;-88
2022/01/17 03:44:05;;;;;;;;;23.25;20.50;;;;;3.01;69.14;101854.78;146604;590;46009;-86
2022/01/17 03:46:57;;;;;;;;;25.25;22.75;;;;;2.96;69.46;101845.75;146604;566;46016;-76
2022/01/17 03:49:49;;;;;;;;;30.50;26.00;;;;;2.94;69.59;101839.56;146601;608;46021;-75
2022/01/17 03:52:41;;;;;;;;;67.25;52.50;;;;;2.98;68.69;101835.66;146606;634;46016;-74
2022/01/17 03:55:34;;;;;;;;;53.75;43.50;;;;;3.05;68.68;101843.19;146605;565;46020;-81
2022/01/17 03:58:28;;;;;;;;;38.00;35.00;;;;;3.11;68.64;101843.78;146600;581;46016;-80
2022/01/17 04:01:20;;;;;;;;;35.75;32.25;;;;;3.11;68.32;101840.31;146602;626;46020;-79
2022/01/17 04:04:12;;;;;;;;;31.00;27.25;;;;;3.04;69.75;101840.47;146600;570;46010;-79
2022/01/17 04:07:05;;;;;;;;;28.75;26.50;;;;;2.96;69.65;101844.81;146604;656;46021;-80
2022/01/17 04:09:57;;;;;;;;;47.75;38.00;;;;;2.85;69.62;101841.22;146602;576;46016;-78
2022/01/17 04:12:49;;;;;;;;;31.75;29.50;;;;;2.77;73.51;101832.78;146602;593;46008;-77
2022/01/17 04:15:42;;;;;;;;;46.50;36.50;;;;;2.75;71.60;101831.72;146605;588;46010;-79
2022/01/17 04:18:34;;;;;;;;;35.75;30.50;;;;;2.78;71.87;101837.13;146605;595;46020;-80
2022/01/17 04:21:32;;;;;;;;;30.25;24.25;;;;;2.83;70.88;101834.13;146600;585;46016;-76
2022/01/17 04:24:24;;;;;;;;;24.50;21.25;;;;;2.85;70.57;101825.84;146606;563;46008;-76
2022/01/17 04:27:16;;;;;;;;;22.75;20.50;;;;;2.85;70.46;101820.72;146603;724;46017;-84
2022/01/17 04:30:10;;;;;;;;;31.25;27.75;;;;;1.82;71.41;101648.31;146602;564;46021;-84
2022/01/17 04:33:03;;;;;;;;;25.25;22.00;;;;;2.91;71.57;101823.00;146607;591;45037;-81
2022/01/17 04:35:54;;;;;;;;;34.25;27.25;;;;;2.94;71.13;101829.31;146605;642;46008;-75
2022/01/17 04:38:46;;;;;;;;;43.00;37.00;;;;;2.96;70.65;101838.06;146601;680;46016;-81
2022/01/17 04:41:39;;;;;;;;;29.75;24.75;;;;;3.00;70.16;101831.59;146602;625;46020;-77
2022/01/17 04:47:44;;;;;;;;;29.50;23.00;;;;;3.07;70.73;101833.09;146602;582;46020;-81
2022/01/17 04:50:36;;;;;;;;;28.75;25.50;;;;;3.07;70.33;101834.00;146600;589;46017;-82
2022/01/17 04:53:28;;;;;;;;;32.25;24.75;;;;;3.08;69.84;101834.88;146604;584;46020;-77
2022/01/17 04:56:21;;;;;;;;;26.75;22.25;;;;;3.04;69.92;101823.44;146604;600;46010;-77
2022/01/17 04:59:13;;;;;;;;;30.00;24.00;;;;;3.03;69.77;101831.00;146609;580;45916;-83
2022/01/17 05:02:06;;;;;;;;;22.25;20.25;;;;;2.96;70.14;101830.37;146602;572;46016;-81
2022/01/17 05:04:58;;;;;;;;;26.25;24.00;;;;;2.91;70.06;101834.13;146602;574;46021;-81
2022/01/17 05:07:52;;;;;;;;;25.50;24.00;;;;;2.93;69.51;101836.87;146601;638;46010;-80
2022/01/17 05:10:51;;;;;;;;;28.50;28.50;;;;;2.95;69.70;101833.69;146601;704;46012;-81
2022/01/17 05:13:47;;;;;;;;;29.75;25.25;;;;;2.96;69.25;101821.75;146601;607;46016;-85
2022/01/17 05:16:47;;;;;;;;;28.75;25.25;;;;;2.92;69.92;101819.66;146605;627;46020;-76
2022/01/17 05:19:48;;;;;;;;;63.75;48.00;;;;;2.86;69.99;101819.94;146604;589;46913;-81
2022/01/17 05:22:42;;;;;;;;;36.25;33.50;;;;;2.82;69.20;101825.53;146602;631;46020;-79
2022/01/17 05:25:34;;;;;;;;;30.75;25.75;;;;;2.81;69.61;101828.84;146601;627;46017;-79
2022/01/17 05:28:26;;;;;;;;;27.75;25.00;;;;;1.68;69.97;101629.00;146606;570;45021;-80
2022/01/17 05:31:18;;;;;;;;;57.50;44.00;;;;;2.81;70.15;101827.97;146602;563;46016;-81
2022/01/17 05:34:11;;;;;;;;;30.75;29.50;;;;;2.74;70.73;101828.97;146602;632;46008;-81
2022/01/17 05:37:03;;;;;;;;;36.00;32.25;;;;;2.67;71.00;101830.03;146600;570;46012;-80
2022/01/17 05:39:56;;;;;;;;;35.25;31.75;;;;;2.59;71.66;101833.50;146604;569;46020;-81
2022/01/17 05:42:49;;;;;;;;;35.00;29.00;;;;;2.57;71.27;101834.09;146606;611;46010;-74
2022/01/17 05:45:41;;;;;;;;;38.50;34.25;;;;;2.55;71.56;101828.78;146605;572;46020;-74
2022/01/17 05:48:33;;;;;;;;;47.75;39.75;;;;;2.56;71.61;101835.75;146601;564;46016;-85
2022/01/17 05:51:25;;;;;;;;;52.25;41.75;;;;;2.60;72.61;101832.72;146604;651;46020;-75
2022/01/17 05:54:18;;;;;;;;;55.00;43.75;;;;;2.62;73.46;101830.34;146604;590;46010;-74
2022/01/17 05:57:10;;;;;;;;;62.00;46.00;;;;;2.64;71.62;101829.72;146606;590;46008;-76
2022/01/17 06:00:03;;;;;;;;;59.50;47.25;;;;;2.67;72.83;101824.91;146603;566;46016;-81
2022/01/17 06:02:55;;;;;;;;;63.75;49.00;;;;;2.70;71.83;101829.44;146606;601;47021;-79
2022/01/17 06:05:47;;;;;;;;;65.75;49.00;;;;;2.73;73.26;101833.19;146601;578;46008;-77
2022/01/17 06:08:39;;;;;;;;;78.25;59.25;;;;;2.76;72.32;101828.38;146605;572;45020;-84
2022/01/17 06:11:33;;;;;;;;;55.75;41.00;;;;;2.82;71.79;101814.38;146604;610;46010;-83
2022/01/17 06:14:25;;;;;;;;;58.50;47.00;;;;;2.84;71.53;101811.22;146606;600;46020;-74
2022/01/17 06:17:18;;;;;;;;;54.50;44.25;;;;;2.89;70.92;101812.56;146603;597;46016;-76
2022/01/17 06:20:11;;;;;;;;;44.00;36.25;;;;;2.94;70.98;101803.69;146603;658;46020;-79
2022/01/17 06:23:03;;;;;;;;;38.50;35.25;;;;;3.07;71.05;101807.47;146603;573;46010;-76
2022/01/17 06:25:55;;;;;;;;;38.25;35.25;;;;;3.49;71.00;101803.06;146602;604;46021;-74
2022/01/17 06:28:48;;;;;;;;;85.33;63.33;;;;;4.30;69.70;101799.56;146603;569;46017;-72
2022/01/17 06:31:40;;;;;;;;;55.00;44.00;;;;;5.29;68.15;101794.91;146608;582;46008;-76
2022/01/17 06:34:33;;;;;;;;;39.25;35.25;;;;;6.21;65.99;101791.03;146604;655;46012;-78
2022/01/17 06:37:25;;;;;;;;;42.00;35.25;;;;;7.11;63.27;101781.34;146603;597;46020;-78
2022/01/17 06:40:18;;;;;;;;;50.25;40.25;;;;;8.02;61.46;101786.91;146601;595;46016;-78
2022/01/17 06:43:11;;;;;;;;;48.00;35.50;;;;;8.90;60.58;101781.59;146603;581;46020;-79
2022/01/17 06:46:03;;;;;;;;;36.50;29.75;;;;;9.82;58.38;101775.34;146603;684;46016;-79
2022/01/17 06:48:56;;;;;;;;;34.00;32.00;;;;;10.60;56.74;101766.13;146601;615;46021;-82
2022/01/17 06:51:48;;;;;;;;;36.00;32.00;;;;;11.41;55.47;101772.31;146601;566;46010;-76
2022/01/17 06:54:41;;;;;;;;;38.75;34.00;;;;;12.08;53.33;101766.19;146602;564;46021;-77
2022/01/17 06:57:33;;;;;;;;;44.75;36.00;;;;;12.56;52.47;101767.38;146601;619;46016;-78
2022/01/17 07:00:26;;;;;;;;;36.25;29.25;;;;;12.97;51.61;101768.03;146602;576;46008;-78
2022/01/17 07:03:18;;;;;;;;;37.50;31.50;;;;;13.19;49.96;101763.25;146602;741;46010;-78
2022/01/17 07:06:10;;;;;;;;;54.00;44.50;;;;;13.21;49.71;101765.91;146604;575;46020;-78
2022/01/17 07:09:05;;;;;;;;;52.00;43.00;;;;;13.30;50.17;101767.41;146604;678;46016;-78
2022/01/17 07:11:59;;;;;;;;;66.50;49.50;;;;;13.54;49.86;101765.25;146603;650;46021;-78
2022/01/17 07:14:51;;;;;;;;;67.75;53.00;;;;;13.93;49.01;101760.44;146600;675;46016;-78
2022/01/17 07:17:44;;;;;;;;;66.00;52.25;;;;;14.25;48.21;101762.16;146601;605;46021;-78
2022/01/17 07:20:37;;;;;;;;;67.25;51.50;;;;;14.49;47.76;101766.88;146604;565;46010;-78
2022/01/17 07:23:29;;;;;;;;;72.75;55.00;;;;;13.76;46.56;101608.31;146602;578;46020;-80
2022/01/17 07:26:21;;;;;;;;;72.50;56.25;;;;;14.68;46.37;101760.94;146602;628;46010;-79
2022/01/17 07:29:14;;;;;;;;;85.33;77.00;;;;;14.67;45.80;101749.59;146602;565;46020;-76
2022/01/17 07:32:07;;;;;;;;;79.67;65.00;;;;;14.54;45.94;101747.16;146607;564;46017;-75
2022/01/17 07:34:59;;;;;;;;;70.25;54.25;;;;;14.40;46.06;101738.59;146602;652;46021;-77
2022/01/17 07:37:51;;;;;;;;;66.00;52.25;;;;;14.06;46.10;101741.16;146602;725;46016;-78
2022/01/17 07:40:44;;;;;;;;;63.00;49.50;;;;;13.53;46.89;101750.44;146605;613;46020;-77
2022/01/17 07:43:37;;;;;;;;;56.00;42.50;;;;;13.01;47.83;101754.38;146606;576;46010;-76
2022/01/17 07:46:47;;;;;;;;;56.50;44.00;;;;;12.52;48.72;101760.19;146609;608;46020;-75
2022/01/17 07:49:39;;;;;;;;;56.25;44.25;;;;;12.15;50.03;101759.66;146606;668;46016;-75
2022/01/17 07:52:32;;;;;;;;;59.00;48.00;;;;;11.91;50.96;101749.56;146605;612;45020;-74
2022/01/17 07:55:24;;;;;;;;;61.25;48.00;;;;;11.70;51.88;101749.06;146605;576;46016;-75
2022/01/17 07:58:16;;;;;;;;;58.25;46.75;;;;;11.65;52.38;101728.78;146607;663;46008;-72
2022/01/17 08:01:08;;;;;;;;;58.75;47.50;;;;;11.69;52.11;101713.50;146608;570;46010;-77
2022/01/17 08:04:00;;;;;;;;;65.00;50.25;;;;;11.71;52.34;101701.53;146604;564;46020;-80
2022/01/17 08:06:53;;;;;;;;;65.25;48.50;;;;;11.77;53.08;101682.78;146604;588;46010;-79
2022/01/17 08:09:46;;;;;;;;;62.50;50.00;;;;;11.90;53.13;101658.47;146605;622;46021;-78
2022/01/17 08:12:38;;;;;;;;;62.00;48.50;;;;;12.07;52.68;101656.94;146603;591;46016;-81
2022/01/17 08:15:34;;;;;;;;;63.75;50.25;;;;;12.24;52.63;101671.81;146603;639;46020;-73
2022/01/17 08:18:26;;;;;;;;;65.75;52.50;;;;;12.40;51.63;101729.16;146600;573;46010;-74
2022/01/17 08:21:19;;;;;;;;;61.00;47.50;;;;;12.48;52.32;101776.41;146605;611;46020;-73
2022/01/17 08:24:11;;;;;;;;;59.75;47.00;;;;;12.45;50.47;101817.84;146605;608;46017;-74
2022/01/17 08:27:05;;;;;;;;;63.25;50.50;;;;;12.32;51.70;101878.63;146602;600;46020;-74
2022/01/17 08:29:57;;;;;;;;;58.25;46.50;;;;;12.29;53.13;101882.75;146602;626;46016;-73
2022/01/17 08:32:50;;;;;;;;;56.25;45.00;;;;;12.35;53.03;101896.12;146609;593;46020;-74
2022/01/17 08:35:42;;;;;;;;;53.75;44.50;;;;;12.33;51.28;101901.22;146604;569;46016;-73
2022/01/17 08:38:35;;;;;;;;;47.75;39.00;;;;;12.30;52.23;101862.03;146604;614;46020;-76
2022/01/17 08:41:27;;;;;;;;;50.50;39.50;;;;;12.27;52.24;101860.94;146607;591;46012;-74
2022/01/17 08:44:20;;;;;;;;;46.75;37.50;;;;;12.32;51.94;101831.81;146605;573;46020;-73
2022/01/17 08:47:12;;;;;;;;;47.75;39.50;;;;;12.33;51.83;101797.19;146600;576;46016;-73
2022/01/17 08:50:04;;;;;;;;;56.25;42.50;;;;;12.46;51.87;101801.44;146604;631;46008;-73
2022/01/17 08:52:57;;;;;;;;;47.50;37.50;;;;;12.69;53.18;101793.31;146602;567;46016;-75
2022/01/17 08:55:50;;;;;;;;;41.75;31.75;;;;;12.92;53.00;101797.28;146603;622;45916;-76
2022/01/17 08:58:42;;;;;;;;;39.75;33.25;;;;;12.00;54.60;101606.28;146602;568;46016;-75
2022/01/17 09:01:35;;;;;;;;;43.50;34.00;;;;;13.38;53.44;101806.91;146602;601;46021;-75
2022/01/17 09:04:27;;;;;;;;;36.25;30.25;;;;;13.58;52.01;101769.84;146599;612;46016;-74
2022/01/17 09:07:20;;;;;;;;;40.50;35.75;;;;;13.77;50.25;101736.94;146603;595;46008;-75
2022/01/17 09:10:13;;;;;;;;;42.75;35.25;;;;;13.90;50.15;101733.31;146602;591;46914;-74
2022/01/17 09:13:07;;;;;;;;;39.25;33.50;;;;;14.01;50.15;101717.41;146602;622;46020;-74
2022/01/17 09:15:59;;;;;;;;;35.75;31.50;;;;;14.15;49.23;101697.28;146601;645;46017;-74
2022/01/17 09:18:52;;;;;;;;;45.50;37.75;;;;;14.27;48.49;101703.16;146600;657;46008;-74
2022/01/17 09:21:44;;;;;;;;;45.75;38.50;;;;;14.35;49.04;101672.22;146604;614;46913;-74
2022/01/17 09:24:36;;;;;;;;;52.25;41.75;;;;;14.46;49.06;101657.13;146603;594;46008;-74
2022/01/17 09:27:29;;;;;;;;;44.00;36.25;;;;;14.52;48.83;101660.06;146602;591;45016;-74
2022/01/17 09:30:21;;;;;;;;;47.75;38.25;;;;;14.59;48.34;101663.87;146603;605;46020;-75
2022/01/17 09:33:13;;;;;;;;;44.00;37.25;;;;;14.53;48.19;101657.53;146603;592;46016;-75
2022/01/17 09:36:06;;;;;;;;;43.75;36.25;;;;;14.43;48.55;101662.19;146601;633;46008;-75
2022/01/17 09:38:58;;;;;;;;;41.75;35.25;;;;;14.31;47.78;101645.09;146604;574;46017;-74
2022/01/17 09:41:51;;;;;;;;;48.00;38.75;;;;;14.24;49.20;101657.75;146609;604;46020;-74
2022/01/17 09:44:43;;;;;;;;;49.50;38.00;;;;;14.31;49.25;101668.56;146605;565;46016;-74
2022/01/17 09:47:37;;;;;;;;;48.50;39.75;;;;;14.45;48.43;101655.31;146605;612;46021;-75
2022/01/17 09:50:35;;;;;;;;;49.50;40.50;;;;;14.51;48.25;101647.81;146603;607;46012;-75
2022/01/17 09:53:28;;;;;;;;;45.75;36.50;;;;;14.53;48.24;101640.97;146605;785;46021;-75
2022/01/17 09:56:24;;;;;;;;;38.50;33.00;;;;;14.58;48.11;101667.28;146601;571;46010;-74
2022/01/17 09:59:17;;;;;;;;;37.75;32.25;;;;;14.65;48.04;101654.63;146602;576;46020;-76
2022/01/17 10:02:10;;;;;;;;;41.75;34.75;;;;;14.78;46.63;101640.47;146599;570;46010;-78
2022/01/17 10:05:06;;;;;;;;;39.25;33.25;;;;;14.86;46.53;101648.66;146605;658;47008;-79
2022/01/17 10:08:02;;;;;;;;;40.00;33.75;;;;;14.91;47.07;101657.63;146604;588;46016;-72
2022/01/17 10:11:04;;;;;;;;;31.50;28.50;;;;;15.06;47.14;101647.03;146604;612;46020;-77
2022/01/17 10:13:56;;;;;;;;;51.75;41.50;;;;;15.25;47.24;101629.66;146608;617;46016;-80
2022/01/17 10:16:48;;;;;;;;;40.25;35.00;;;;;15.45;46.50;101628.00;146606;721;46021;-77
2022/01/17 10:19:41;;;;;;;;;44.50;35.75;;;;;15.59;44.68;101618.16;146604;619;46012;-81
2022/01/17 10:22:43;;;;;;;;;34.25;29.00;;;;;15.60;45.09;101613.81;146606;580;46021;-77
2022/01/17 10:25:55;;;;;;;;;42.50;35.00;;;;;15.54;46.29;101608.31;146609;661;46016;-74
2022/01/17 10:29:11;;;;;;;;;31.00;29.75;;;;;15.57;45.74;101596.25;146607;582;46008;-74
2022/01/17 10:35:40;;;;;;;;;31.50;30.00;;;;;14.83;45.98;101408.31;146604;573;46020;-75
2022/01/17 10:38:33;;;;;;;;;26.75;26.50;;;;;14.42;45.69;101352.47;146602;622;46016;-78
2022/01/17 10:41:32;;;;;;;;;34.00;31.25;;;;;15.93;44.13;101577.84;146603;569;46020;-78
2022/01/17 10:44:41;;;;;;;;;36.25;31.25;;;;;15.94;45.77;101580.50;146601;583;47010;-79
2022/01/17 10:47:36;;;;;;;;;37.75;31.25;;;;;16.00;45.44;101582.50;146606;569;46020;-75
2022/01/17 10:50:48;;;;;;;;;33.00;28.50;;;;;16.19;44.48;101570.19;146600;573;46016;-80
2022/01/17 10:53:41;;;;;;;;;28.00;25.75;;;;;16.32;43.63;101575.09;146604;714;47008;-79
2022/01/17 10:56:33;;;;;;;;;29.50;27.00;;;;;16.27;44.40;101581.88;146603;633;46026;-78
2022/01/17 10:59:36;;;;;;;;;30.75;30.00;;;;;16.20;45.36;101559.81;146605;573;46020;-75
2022/01/17 11:02:31;;;;;;;;;32.50;29.75;;;;;16.10;45.34;101548.03;146603;605;46016;-72
2022/01/17 11:05:24;;;;;;;;;40.50;30.25;;;;;16.01;45.82;101555.53;146602;613;46020;-74
2022/01/17 11:08:19;;;;;;;;;28.75;27.75;;;;;15.89;45.17;101547.16;146599;570;46010;-74
2022/01/17 11:11:13;;;;;;;;;29.75;25.50;;;;;15.90;45.82;101544.59;146602;632;46020;-75
2022/01/17 11:14:11;;;;;;;;;35.00;31.00;;;;;15.98;46.83;101546.63;146599;587;46010;-74
2022/01/17 11:17:03;;;;;;;;;33.75;29.75;;;;;15.99;46.61;101558.91;146602;609;46020;-74
2022/01/17 11:20:04;;;;;;;;;32.75;28.50;;;;;15.95;45.64;101573.56;146601;570;46016;-74
2022/01/17 11:23:02;;;;;;;;;28.25;26.00;;;;;15.84;44.96;101569.59;146602;632;46012;-74
2022/01/17 11:25:56;;;;;;;;;35.00;30.00;;;;;15.85;45.67;101568.75;146601;569;46016;-74
2022/01/17 11:28:54;;;;;;;;;32.50;29.50;;;;;15.92;45.80;101550.78;146604;580;46021;-74
2022/01/17 11:31:47;;;;;;;;;32.00;27.75;;;;;16.05;46.01;101541.72;146599;635;46016;-74
2022/01/17 11:34:39;;;;;;;;;32.50;30.75;;;;;16.14;46.41;101534.28;146603;634;46008;-73
2022/01/17 11:37:38;;;;;;;;;35.50;31.25;;;;;16.23;47.50;101527.59;146599;630;46914;-73
2022/01/17 11:40:42;;;;;;;;;29.50;27.00;;;;;16.32;46.66;101517.50;146604;640;46020;-74
2022/01/17 11:43:39;;;;;;;;;31.25;28.00;;;;;16.33;45.83;101503.63;146600;599;46011;-74
2022/01/17 11:46:51;;;;;;;;;29.25;27.00;;;;;16.23;46.92;101512.84;146603;583;46020;-76
2022/01/17 11:49:44;;;;;;;;;26.50;23.00;;;;;16.08;46.76;101507.84;146601;591;46016;-72
2022/01/17 11:52:35;;;;;;;;;30.00;27.50;;;;;16.07;47.99;101545.28;146603;577;46021;-73
2022/01/17 11:56:03;;;;;;;;;32.00;28.25;;;;;15.10;49.03;101372.06;146602;572;46025;-73
2022/01/17 11:58:55;;;;;;;;;33.50;28.75;;;;;16.11;48.48;101544.59;146600;640;46008;-74
2022/01/17 12:02:41;;;;;;;;;30.25;28.00;;;;;15.28;48.33;101361.53;146601;656;45016;-73
2022/01/17 12:05:37;;;;;;;;;25.75;23.25;;;;;16.35;46.89;101530.72;146605;574;46021;-72
2022/01/17 12:08:31;;;;;;;;;33.00;29.50;;;;;16.48;47.33;101512.09;146606;570;46010;-69
2022/01/17 12:11:32;;;;;;;;;22.50;21.50;;;;;16.51;46.57;101509.59;146608;569;46020;-74
2022/01/17 12:14:33;;;;;;;;;26.00;23.50;;;;;16.46;46.37;101500.66;146604;581;47010;-74
2022/01/17 12:17:35;;;;;;;;;21.25;19.50;;;;;16.38;46.30;101505.56;146605;596;46020;-73
2022/01/17 12:20:27;;;;;;;;;29.00;27.25;;;;;16.35;47.46;101496.69;146606;570;46016;-73
2022/01/17 12:23:30;;;;;;;;;28.25;26.75;;;;;16.49;47.09;101487.69;146606;584;46012;-73
2022/01/17 12:26:34;;;;;;;;;28.75;25.50;;;;;16.66;45.80;101497.91;146606;652;46010;-73
2022/01/17 12:30:00;;;;;;;;;24.00;23.25;;;;;15.73;46.25;101336.41;146609;630;46008;-74
2022/01/17 12:32:55;;;;;;;;;26.50;25.75;;;;;16.78;44.13;101485.31;146604;619;46016;-74
2022/01/17 12:35:47;;;;;;;;;23.75;23.25;;;;;16.87;45.04;101488.31;146605;574;46021;-73
2022/01/17 12:38:45;;;;;;;;;26.00;23.00;;;;;16.95;44.26;101480.75;146606;575;46016;-73
2022/01/17 12:41:41;;;;;;;;;25.25;24.75;;;;;17.06;43.86;101482.91;146607;617;46020;-73
2022/01/17 12:44:39;;;;;;;;;25.25;22.50;;;;;17.14;44.16;101477.06;146600;564;47012;-75
2022/01/17 12:47:40;;;;;;;;;26.75;24.00;;;;;17.20;43.83;101466.81;146606;570;46008;-73
2022/01/17 12:50:34;;;;;;;;;27.75;24.25;;;;;17.10;45.26;101460.31;146604;589;46012;-74
2022/01/17 12:53:29;;;;;;;;;28.75;27.75;;;;;17.14;45.54;101463.97;146606;571;46008;-74
2022/01/17 12:56:21;;;;;;;;;32.25;28.25;;;;;17.27;45.15;101463.56;146600;597;47012;-74
2022/01/17 12:59:15;;;;;;;;;26.50;24.00;;;;;17.34;44.63;101460.31;146608;596;46008;-74
2022/01/17 13:02:09;;;;;;;;;24.75;23.75;;;;;17.39;44.05;101456.12;146605;563;46010;-74
2022/01/17 13:05:01;;;;;;;;;27.75;25.50;;;;;17.42;42.60;101455.34;146605;613;45028;-74
2022/01/17 13:07:55;;;;;;;;;26.75;25.00;;;;;16.59;44.70;101297.81;146599;569;46010;-74
2022/01/17 13:10:47;;;;;;;;;36.75;29.75;;;;;17.45;45.09;101440.63;146603;571;46020;-74
2022/01/17 13:14:01;;;;;;;;;45.25;37.00;;;;;17.41;44.46;101422.09;146605;608;46017;-74
2022/01/17 13:16:55;;;;;;;;;37.50;32.25;;;;;17.29;44.14;101399.87;146606;578;45020;-75
2022/01/17 13:19:54;;;;;;;;;40.25;33.00;;;;;17.25;44.00;101413.69;146601;633;46010;-74
2022/01/17 13:23:06;;;;;;;;;45.00;35.75;;;;;17.02;45.05;101404.16;146607;629;46020;-75
2022/01/17 13:25:59;;;;;;;;;27.50;26.00;;;;;16.95;46.12;101413.53;146600;638;46010;-73
2022/01/17 13:28:56;;;;;;;;;32.00;29.25;;;;;17.04;44.92;101416.47;146603;594;46021;-74
2022/01/17 13:31:48;;;;;;;;;32.25;27.00;;;;;17.18;45.61;101416.06;146601;627;46010;-73
2022/01/17 13:34:41;;;;;;;;;27.50;25.25;;;;;17.28;46.08;101416.44;146604;602;45021;-73